createdAt,value
2023-05-21T00:00:02.134Z,11.29
2023-05-21T00:00:12.190Z,11.29
2023-05-21T00:00:22.129Z,11.28
2023-05-21T00:00:32.145Z,11.27
2023-05-21T00:00:42.129Z,11.28
2023-05-21T00:00:52.151Z,11.27
2023-05-21T00:01:12.136Z,11.26
2023-05-21T00:01:22.135Z,11.26
2023-05-21T00:01:32.142Z,11.24
2023-05-21T00:01:42.139Z,11.22
2023-05-21T00:01:52.150Z,11.22
2023-05-21T00:02:02.143Z,11.22
2023-05-21T00:02:12.136Z,11.22
2023-05-21T00:02:22.154Z,11.20
2023-05-21T00:02:32.236Z,11.19
2023-05-21T00:02:42.208Z,11.19
2023-05-21T00:02:52.231Z,11.18
2023-05-21T00:03:02.247Z,11.17
2023-05-21T00:03:12.213Z,11.16
2023-05-21T00:03:22.224Z,11.16
2023-05-21T00:03:32.222Z,11.15
2023-05-21T00:03:52.283Z,11.15
2023-05-21T00:04:02.196Z,11.14
2023-05-21T00:04:12.164Z,11.14
2023-05-21T00:04:22.135Z,11.15
2023-05-21T00:04:32.156Z,11.15
2023-05-21T00:04:42.163Z,11.14
2023-05-21T00:04:52.165Z,11.12
2023-05-21T00:05:02.168Z,11.12
2023-05-21T00:05:14.470Z,11.13
2023-05-21T00:05:22.154Z,11.10
2023-05-21T00:05:32.202Z,11.10
2023-05-21T00:05:42.187Z,11.11
2023-05-21T00:05:52.205Z,11.12
2023-05-21T00:06:12.178Z,11.13
2023-05-21T00:06:22.196Z,11.12
2023-05-21T00:06:32.185Z,11.11
2023-05-21T00:06:42.162Z,11.11
2023-05-21T00:06:52.222Z,11.12
2023-05-21T00:07:02.176Z,11.12
2023-05-21T00:07:12.159Z,11.13
2023-05-21T00:07:22.160Z,11.12
2023-05-21T00:07:32.164Z,11.14
2023-05-21T00:07:42.166Z,11.14
2023-05-21T00:07:52.171Z,11.14
2023-05-21T00:08:02.180Z,11.17
2023-05-21T00:08:12.168Z,11.17
2023-05-21T00:08:22.164Z,11.16
2023-05-21T00:08:32.169Z,11.18
2023-05-21T00:08:42.170Z,11.17
2023-05-21T00:08:52.168Z,11.18
2023-05-21T00:09:02.179Z,11.17
2023-05-21T00:09:12.176Z,11.17
2023-05-21T00:09:22.166Z,11.16
2023-05-21T00:09:32.173Z,11.15
2023-05-21T00:09:42.170Z,11.15
2023-05-21T00:09:52.174Z,11.15
2023-05-21T00:10:02.243Z,11.15
2023-05-21T00:10:12.175Z,11.14
2023-05-21T00:10:22.185Z,11.13
2023-05-21T00:10:32.209Z,11.13
2023-05-21T00:10:42.178Z,11.14
2023-05-21T00:10:52.181Z,11.12
2023-05-21T00:11:12.179Z,11.11
2023-05-21T00:11:22.183Z,11.09
2023-05-21T00:11:32.179Z,11.09
2023-05-21T00:11:42.210Z,11.09
2023-05-21T00:11:52.185Z,11.10
2023-05-21T00:12:02.198Z,11.08
2023-05-21T00:12:12.193Z,11.07
2023-05-21T00:12:22.185Z,11.06
2023-05-21T00:12:32.191Z,11.05
2023-05-21T00:12:42.189Z,11.07
2023-05-21T00:12:52.187Z,11.06
2023-05-21T00:13:02.192Z,11.06
2023-05-21T00:13:12.248Z,11.06
2023-05-21T00:13:22.199Z,11.05
2023-05-21T00:13:32.191Z,11.05
2023-05-21T00:13:42.211Z,11.05
2023-05-21T00:13:52.192Z,11.05
2023-05-21T00:14:02.194Z,11.05
2023-05-21T00:14:22.215Z,11.02
2023-05-21T00:14:32.194Z,11.02
2023-05-21T00:14:42.195Z,11.03
2023-05-21T00:14:52.200Z,11.02
2023-05-21T00:15:02.207Z,11.03
2023-05-21T00:15:12.199Z,10.99
2023-05-21T00:15:32.203Z,10.98
2023-05-21T00:15:42.199Z,10.95
2023-05-21T00:15:52.276Z,10.96
2023-05-21T00:16:02.242Z,10.95
2023-05-21T00:16:12.243Z,10.93
2023-05-21T00:16:22.256Z,10.93
2023-05-21T00:16:32.242Z,10.93
2023-05-21T00:16:42.256Z,10.93
2023-05-21T00:16:52.355Z,10.92
2023-05-21T00:17:02.248Z,10.93
2023-05-21T00:17:12.222Z,10.91
2023-05-21T00:17:22.208Z,10.91
2023-05-21T00:17:32.229Z,10.91
2023-05-21T00:17:42.265Z,10.91
2023-05-21T00:17:52.242Z,10.95
2023-05-21T00:18:02.247Z,10.93
2023-05-21T00:18:12.235Z,10.93
2023-05-21T00:18:22.252Z,10.91
2023-05-21T00:18:32.267Z,10.92
2023-05-21T00:18:42.236Z,10.92
2023-05-21T00:18:52.234Z,10.91
2023-05-21T00:19:02.300Z,10.90
2023-05-21T00:19:12.249Z,10.90
2023-05-21T00:19:22.258Z,10.90
2023-05-21T00:19:42.225Z,10.88
2023-05-21T00:19:52.221Z,10.85
2023-05-21T00:20:02.219Z,10.85
2023-05-21T00:20:12.221Z,10.83
2023-05-21T00:20:22.232Z,10.80
2023-05-21T00:20:32.250Z,10.82
2023-05-21T00:20:42.228Z,10.81
2023-05-21T00:20:52.227Z,10.79
2023-05-21T00:21:02.307Z,10.79
2023-05-21T00:21:12.228Z,10.79
2023-05-21T00:21:22.248Z,10.80
2023-05-21T00:21:42.229Z,10.76
2023-05-21T00:21:52.231Z,10.76
2023-05-21T00:22:02.246Z,10.75
2023-05-21T00:22:12.246Z,10.75
2023-05-21T00:22:22.274Z,10.74
2023-05-21T00:22:32.234Z,10.71
2023-05-21T00:22:42.423Z,10.71
2023-05-21T00:22:52.235Z,10.71
2023-05-21T00:23:02.238Z,10.72
2023-05-21T00:23:22.268Z,10.73
2023-05-21T00:23:32.234Z,10.73
2023-05-21T00:23:42.242Z,10.74
2023-05-21T00:23:52.238Z,10.76
2023-05-21T00:24:02.245Z,10.77
2023-05-21T00:24:12.244Z,10.79
2023-05-21T00:24:22.248Z,10.79
2023-05-21T00:24:32.238Z,10.80
2023-05-21T00:24:42.245Z,10.82
2023-05-21T00:24:52.241Z,10.81
2023-05-21T00:25:02.248Z,10.80
2023-05-21T00:25:12.250Z,10.84
2023-05-21T00:25:22.254Z,10.84
2023-05-21T00:25:32.249Z,10.84
2023-05-21T00:25:42.264Z,10.81
2023-05-21T00:25:52.257Z,10.83
2023-05-21T00:26:02.256Z,10.84
2023-05-21T00:26:12.282Z,10.84
2023-05-21T00:26:22.265Z,10.82
2023-05-21T00:26:32.250Z,10.82
2023-05-21T00:26:42.250Z,10.81
2023-05-21T00:26:52.253Z,10.79
2023-05-21T00:27:02.264Z,10.78
2023-05-21T00:27:22.280Z,10.79
2023-05-21T00:27:32.256Z,10.77
2023-05-21T00:27:42.252Z,10.79
2023-05-21T00:27:52.258Z,10.77
2023-05-21T00:28:02.257Z,10.77
2023-05-21T00:28:12.259Z,10.77
2023-05-21T00:28:22.265Z,10.76
2023-05-21T00:28:32.257Z,10.75
2023-05-21T00:28:42.262Z,10.75
2023-05-21T00:28:52.257Z,10.75
2023-05-21T00:29:02.262Z,10.75
2023-05-21T00:29:12.266Z,10.76
2023-05-21T00:29:22.259Z,10.75
2023-05-21T00:29:32.286Z,10.76
2023-05-21T00:29:44.167Z,10.76
2023-05-21T00:29:52.295Z,10.74
2023-05-21T00:30:02.264Z,10.75
2023-05-21T00:30:12.290Z,10.76
2023-05-21T00:30:22.267Z,10.76
2023-05-21T00:30:42.274Z,10.76
2023-05-21T00:30:52.268Z,10.77
2023-05-21T00:31:02.268Z,10.76
2023-05-21T00:31:12.323Z,10.77
2023-05-21T00:31:22.317Z,10.77
2023-05-21T00:31:32.332Z,10.78
2023-05-21T00:31:52.341Z,10.76
2023-05-21T00:32:02.468Z,10.77
2023-05-21T00:32:12.348Z,10.76
2023-05-21T00:32:22.312Z,10.76
2023-05-21T00:32:32.324Z,10.74
2023-05-21T00:32:42.322Z,10.75
2023-05-21T00:32:52.306Z,10.74
2023-05-21T00:33:02.403Z,10.74
2023-05-21T00:33:12.274Z,10.73
2023-05-21T00:33:22.277Z,10.70
2023-05-21T00:33:42.304Z,10.70
2023-05-21T00:33:52.287Z,10.68
2023-05-21T00:34:02.290Z,10.67
2023-05-21T00:34:12.279Z,10.66
2023-05-21T00:34:22.308Z,10.66
2023-05-21T00:34:32.285Z,10.67
2023-05-21T00:34:52.336Z,10.65
2023-05-21T00:35:02.310Z,10.65
2023-05-21T00:35:12.294Z,10.63
2023-05-21T00:35:22.282Z,10.64
2023-05-21T00:35:32.287Z,10.66
2023-05-21T00:35:42.305Z,10.63
2023-05-21T00:36:02.284Z,10.64
2023-05-21T00:36:12.292Z,10.65
2023-05-21T00:36:22.299Z,10.64
2023-05-21T00:36:32.289Z,10.67
2023-05-21T00:36:42.298Z,10.65
2023-05-21T00:36:52.289Z,10.63
2023-05-21T00:37:02.291Z,10.64
2023-05-21T00:37:12.292Z,10.64
2023-05-21T00:37:22.292Z,10.63
2023-05-21T00:37:32.288Z,10.63
2023-05-21T00:37:42.309Z,10.63
2023-05-21T00:37:52.295Z,10.62
2023-05-21T00:38:02.297Z,10.63
2023-05-21T00:38:12.292Z,10.62
2023-05-21T00:38:22.306Z,10.62
2023-05-21T00:38:32.308Z,10.59
2023-05-21T00:38:42.306Z,10.60
2023-05-21T00:39:02.325Z,10.60
2023-05-21T00:39:12.297Z,10.59
2023-05-21T00:39:22.297Z,10.59
2023-05-21T00:39:32.299Z,10.59
2023-05-21T00:39:42.304Z,10.59
2023-05-21T00:39:52.305Z,10.56
2023-05-21T00:40:02.411Z,10.56
2023-05-21T00:40:12.350Z,10.57
2023-05-21T00:40:22.299Z,10.59
2023-05-21T00:40:32.321Z,10.59
2023-05-21T00:40:42.305Z,10.59
2023-05-21T00:40:52.325Z,10.59
2023-05-21T00:41:12.326Z,10.59
2023-05-21T00:41:22.310Z,10.59
2023-05-21T00:41:32.316Z,10.58
2023-05-21T00:41:42.311Z,10.58
2023-05-21T00:41:52.308Z,10.59
2023-05-21T00:42:02.338Z,10.60
2023-05-21T00:42:12.340Z,10.60
2023-05-21T00:42:22.310Z,10.58
2023-05-21T00:42:32.348Z,10.59
2023-05-21T00:42:42.318Z,10.57
2023-05-21T00:42:52.326Z,10.56
2023-05-21T00:43:02.322Z,10.58
2023-05-21T00:43:22.322Z,10.56
2023-05-21T00:43:32.324Z,10.57
2023-05-21T00:43:42.329Z,10.55
2023-05-21T00:43:52.327Z,10.55
2023-05-21T00:44:02.314Z,10.54
2023-05-21T00:44:12.321Z,10.53
2023-05-21T00:44:22.329Z,10.53
2023-05-21T00:44:32.319Z,10.53
2023-05-21T00:44:42.333Z,10.52
2023-05-21T00:44:52.328Z,10.50
2023-05-21T00:45:02.325Z,10.51
2023-05-21T00:45:12.337Z,10.50
2023-05-21T00:45:22.336Z,10.51
2023-05-21T00:45:32.358Z,10.52
2023-05-21T00:45:42.355Z,10.49
2023-05-21T00:45:52.358Z,10.49
2023-05-21T00:46:02.443Z,10.49
2023-05-21T00:46:22.374Z,10.50
2023-05-21T00:46:32.349Z,10.49
2023-05-21T00:46:42.334Z,10.49
2023-05-21T00:46:52.329Z,10.50
2023-05-21T00:47:02.347Z,10.51
2023-05-21T00:47:12.332Z,10.50
2023-05-21T00:47:22.391Z,10.50
2023-05-21T00:47:32.354Z,10.50
2023-05-21T00:47:42.364Z,10.49
2023-05-21T00:47:52.391Z,10.50
2023-05-21T00:48:02.361Z,10.49
2023-05-21T00:48:12.334Z,10.50
2023-05-21T00:48:22.344Z,10.50
2023-05-21T00:48:32.347Z,10.48
2023-05-21T00:48:42.350Z,10.48
2023-05-21T00:48:52.349Z,10.49
2023-05-21T00:49:02.347Z,10.49
2023-05-21T00:49:12.338Z,10.50
2023-05-21T00:49:22.363Z,10.51
2023-05-21T00:49:32.338Z,10.51
2023-05-21T00:49:52.352Z,10.51
2023-05-21T00:50:02.350Z,10.51
2023-05-21T00:50:12.383Z,10.52
2023-05-21T00:50:22.338Z,10.51
2023-05-21T00:50:32.351Z,10.52
2023-05-21T00:50:42.362Z,10.51
2023-05-21T00:50:52.385Z,10.52
2023-05-21T00:51:02.359Z,10.53
2023-05-21T00:51:22.362Z,10.50
2023-05-21T00:51:32.334Z,10.51
2023-05-21T00:51:42.354Z,10.52
2023-05-21T00:51:52.345Z,10.52
2023-05-21T00:52:02.369Z,10.51
2023-05-21T00:52:12.349Z,10.52
2023-05-21T00:52:22.348Z,10.52
2023-05-21T00:52:32.350Z,10.54
2023-05-21T00:52:42.499Z,10.52
2023-05-21T00:52:52.361Z,10.50
2023-05-21T00:53:12.359Z,10.50
2023-05-21T00:53:22.353Z,10.50
2023-05-21T00:53:32.352Z,10.50
2023-05-21T00:53:42.352Z,10.50
2023-05-21T00:53:52.358Z,10.48
2023-05-21T00:54:02.354Z,10.50
2023-05-21T00:54:12.355Z,10.47
2023-05-21T00:54:22.355Z,10.48
2023-05-21T00:54:32.358Z,10.49
2023-05-21T00:54:42.359Z,10.48
2023-05-21T00:54:52.361Z,10.48
2023-05-21T00:55:02.384Z,10.47
2023-05-21T00:55:12.359Z,10.48
2023-05-21T00:55:22.359Z,10.49
2023-05-21T00:55:32.360Z,10.48
2023-05-21T00:55:42.361Z,10.49
2023-05-21T00:55:52.376Z,10.49
2023-05-21T00:56:02.364Z,10.47
2023-05-21T00:56:12.362Z,10.47
2023-05-21T00:56:32.366Z,10.47
2023-05-21T00:56:42.425Z,10.47
2023-05-21T00:56:52.372Z,10.47
2023-05-21T00:57:02.370Z,10.48
2023-05-21T00:57:12.364Z,10.48
2023-05-21T00:57:22.368Z,10.49
2023-05-21T00:57:32.368Z,10.49
2023-05-21T00:57:42.372Z,10.53
2023-05-21T00:57:52.373Z,10.55
2023-05-21T00:58:02.369Z,10.57
2023-05-21T00:58:12.369Z,10.60
2023-05-21T00:58:22.371Z,10.64
2023-05-21T00:58:32.390Z,10.62
2023-05-21T00:58:42.374Z,10.64
2023-05-21T00:58:52.410Z,10.66
2023-05-21T00:59:02.374Z,10.67
2023-05-21T00:59:12.378Z,10.69
2023-05-21T00:59:22.375Z,10.70
2023-05-21T00:59:42.378Z,10.70
2023-05-21T00:59:52.384Z,10.72
2023-05-21T01:00:02.397Z,10.72
2023-05-21T01:00:12.385Z,10.76
2023-05-21T01:00:22.420Z,10.75
2023-05-21T01:00:32.382Z,10.74
2023-05-21T01:00:42.389Z,10.75
2023-05-21T01:01:02.433Z,10.75
2023-05-21T01:01:12.424Z,10.75
2023-05-21T01:01:22.471Z,10.74
2023-05-21T01:01:32.459Z,10.75
2023-05-21T01:01:42.463Z,10.74
2023-05-21T01:01:52.389Z,10.74
2023-05-21T01:02:02.459Z,10.73
2023-05-21T01:02:12.416Z,10.74
2023-05-21T01:02:22.481Z,10.73
2023-05-21T01:02:42.464Z,10.69
2023-05-21T01:02:52.468Z,10.67
2023-05-21T01:03:02.492Z,10.66
2023-05-21T01:03:12.446Z,10.64
2023-05-21T01:03:22.571Z,10.63
2023-05-21T01:03:32.545Z,10.62
2023-05-21T01:03:42.436Z,10.61
2023-05-21T01:03:52.399Z,10.59
2023-05-21T01:04:02.403Z,10.59
2023-05-21T01:04:22.402Z,10.58
2023-05-21T01:04:32.407Z,10.60
2023-05-21T01:04:42.406Z,10.61
2023-05-21T01:04:52.409Z,10.60
2023-05-21T01:05:02.403Z,10.60
2023-05-21T01:05:12.404Z,10.59
2023-05-21T01:05:22.398Z,10.59
2023-05-21T01:05:32.405Z,10.58
2023-05-21T01:05:42.415Z,10.57
2023-05-21T01:06:02.406Z,10.57
2023-05-21T01:06:12.425Z,10.58
2023-05-21T01:06:22.405Z,10.55
2023-05-21T01:06:32.452Z,10.55
2023-05-21T01:06:42.438Z,10.56
2023-05-21T01:06:52.411Z,10.55
2023-05-21T01:07:02.415Z,10.53
2023-05-21T01:07:12.416Z,10.52
2023-05-21T01:07:22.427Z,10.50
2023-05-21T01:07:32.424Z,10.49
2023-05-21T01:07:42.425Z,10.49
2023-05-21T01:07:52.416Z,10.50
2023-05-21T01:08:02.424Z,10.48
2023-05-21T01:08:12.439Z,10.48
2023-05-21T01:08:32.415Z,10.50
2023-05-21T01:08:42.422Z,10.51
2023-05-21T01:08:52.419Z,10.53
2023-05-21T01:09:03.896Z,10.56
2023-05-21T01:09:12.438Z,10.56
2023-05-21T01:09:22.428Z,10.57
2023-05-21T01:09:32.420Z,10.58
2023-05-21T01:09:42.422Z,10.60
2023-05-21T01:10:02.418Z,10.61
2023-05-21T01:10:12.433Z,10.63
2023-05-21T01:10:22.428Z,10.63
2023-05-21T01:10:32.455Z,10.63
2023-05-21T01:10:42.421Z,10.62
2023-05-21T01:10:52.427Z,10.62
2023-05-21T01:11:02.424Z,10.63
2023-05-21T01:11:12.428Z,10.64
2023-05-21T01:11:22.424Z,10.64
2023-05-21T01:11:42.427Z,10.63
2023-05-21T01:11:52.427Z,10.62
2023-05-21T01:12:02.434Z,10.62
2023-05-21T01:12:12.485Z,10.63
2023-05-21T01:12:22.438Z,10.63
2023-05-21T01:12:32.436Z,10.62
2023-05-21T01:12:42.445Z,10.63
2023-05-21T01:13:02.435Z,10.63
2023-05-21T01:13:12.462Z,10.61
2023-05-21T01:13:22.437Z,10.63
2023-05-21T01:13:32.440Z,10.60
2023-05-21T01:13:42.443Z,10.60
2023-05-21T01:13:52.438Z,10.59
2023-05-21T01:14:02.438Z,10.59
2023-05-21T01:14:12.463Z,10.58
2023-05-21T01:14:22.452Z,10.56
2023-05-21T01:14:32.468Z,10.57
2023-05-21T01:14:42.442Z,10.56
2023-05-21T01:14:52.445Z,10.55
2023-05-21T01:15:02.453Z,10.56
2023-05-21T01:15:12.469Z,10.56
2023-05-21T01:15:22.458Z,10.54
2023-05-21T01:15:42.454Z,10.54
2023-05-21T01:15:52.450Z,10.52
2023-05-21T01:16:02.445Z,10.53
2023-05-21T01:16:12.456Z,10.52
2023-05-21T01:16:22.469Z,10.52
2023-05-21T01:16:32.515Z,10.50
2023-05-21T01:16:42.543Z,10.50
2023-05-21T01:16:52.515Z,10.49
2023-05-21T01:17:02.501Z,10.49
2023-05-21T01:17:22.499Z,10.49
2023-05-21T01:17:32.497Z,10.49
2023-05-21T01:17:42.485Z,10.48
2023-05-21T01:17:52.508Z,10.45
2023-05-21T01:18:02.482Z,10.45
2023-05-21T01:18:12.483Z,10.44
2023-05-21T01:18:22.548Z,10.43
2023-05-21T01:18:32.469Z,10.42
2023-05-21T01:18:42.521Z,10.42
2023-05-21T01:18:52.589Z,10.41
2023-05-21T01:19:02.551Z,10.39
2023-05-21T01:19:12.699Z,10.37
2023-05-21T01:19:32.497Z,10.34
2023-05-21T01:19:42.542Z,10.34
2023-05-21T01:19:52.545Z,10.33
2023-05-21T01:20:02.474Z,10.32
2023-05-21T01:20:12.464Z,10.30
2023-05-21T01:20:22.478Z,10.30
2023-05-21T01:20:32.471Z,10.33
2023-05-21T01:20:42.483Z,10.32
2023-05-21T01:20:52.472Z,10.32
2023-05-21T01:21:12.472Z,10.29
2023-05-21T01:21:22.473Z,10.28
2023-05-21T01:21:32.468Z,10.29
2023-05-21T01:21:42.473Z,10.30
2023-05-21T01:21:52.510Z,10.30
2023-05-21T01:22:02.516Z,10.31
2023-05-21T01:22:12.491Z,10.32
2023-05-21T01:22:22.502Z,10.32
2023-05-21T01:22:32.606Z,10.33
2023-05-21T01:22:42.478Z,10.34
2023-05-21T01:23:02.482Z,10.30
2023-05-21T01:23:12.480Z,10.30
2023-05-21T01:23:22.488Z,10.29
2023-05-21T01:23:32.498Z,10.30
2023-05-21T01:23:42.481Z,10.28
2023-05-21T01:23:52.486Z,10.29
2023-05-21T01:24:02.486Z,10.30
2023-05-21T01:24:12.490Z,10.29
2023-05-21T01:24:22.483Z,10.30
2023-05-21T01:24:32.509Z,10.28
2023-05-21T01:24:42.490Z,10.26
2023-05-21T01:24:52.489Z,10.25
2023-05-21T01:25:02.491Z,10.24
2023-05-21T01:25:12.496Z,10.22
2023-05-21T01:25:22.505Z,10.22
2023-05-21T01:25:42.516Z,10.19
2023-05-21T01:25:52.486Z,10.18
2023-05-21T01:26:02.491Z,10.17
2023-05-21T01:26:12.491Z,10.14
2023-05-21T01:26:22.510Z,10.12
2023-05-21T01:26:32.522Z,10.11
2023-05-21T01:26:42.508Z,10.09
2023-05-21T01:26:52.495Z,10.06
2023-05-21T01:27:02.494Z,10.05
2023-05-21T01:27:12.531Z,10.04
2023-05-21T01:27:22.495Z,10.03
2023-05-21T01:27:42.504Z,10.03
2023-05-21T01:27:52.502Z,10.01
2023-05-21T01:28:02.505Z,10.01
2023-05-21T01:28:12.534Z,10.01
2023-05-21T01:28:22.502Z,10.00
2023-05-21T01:28:32.529Z,9.99
2023-05-21T01:28:42.504Z,9.99
2023-05-21T01:28:52.506Z,10.01
2023-05-21T01:29:02.543Z,10.00
2023-05-21T01:29:22.505Z,10.00
2023-05-21T01:29:32.513Z,9.99
2023-05-21T01:29:42.527Z,9.99
2023-05-21T01:29:52.527Z,9.98
2023-05-21T01:30:02.523Z,9.99
2023-05-21T01:30:12.513Z,9.99
2023-05-21T01:30:22.530Z,9.98
2023-05-21T01:30:32.514Z,9.99
2023-05-21T01:30:52.520Z,9.99
2023-05-21T01:31:02.537Z,9.97
2023-05-21T01:31:12.516Z,9.96
2023-05-21T01:31:22.517Z,9.96
2023-05-21T01:31:32.517Z,9.95
2023-05-21T01:31:42.518Z,9.95
2023-05-21T01:31:52.531Z,9.94
2023-05-21T01:32:12.522Z,9.94
2023-05-21T01:32:22.531Z,9.94
2023-05-21T01:32:32.553Z,9.93
2023-05-21T01:32:42.656Z,9.94
2023-05-21T01:32:52.726Z,9.94
2023-05-21T01:33:02.655Z,9.94
2023-05-21T01:33:12.559Z,9.96
2023-05-21T01:33:22.705Z,9.97
2023-05-21T01:33:32.604Z,9.98
2023-05-21T01:33:42.539Z,9.99
2023-05-21T01:33:52.555Z,9.99
2023-05-21T01:34:02.551Z,9.98
2023-05-21T01:34:12.526Z,9.98
2023-05-21T01:34:22.539Z,9.99
2023-05-21T01:34:32.550Z,9.98
2023-05-21T01:34:42.542Z,9.98
2023-05-21T01:35:02.527Z,9.96
2023-05-21T01:35:12.529Z,9.96
2023-05-21T01:35:22.541Z,9.97
2023-05-21T01:35:32.556Z,9.97
2023-05-21T01:35:42.533Z,9.95
2023-05-21T01:35:52.566Z,9.94
2023-05-21T01:36:02.539Z,9.92
2023-05-21T01:36:12.536Z,9.91
2023-05-21T01:36:32.583Z,9.89
2023-05-21T01:36:42.542Z,9.88
2023-05-21T01:36:52.536Z,9.86
2023-05-21T01:37:02.546Z,9.84
2023-05-21T01:37:12.541Z,9.82
2023-05-21T01:37:22.535Z,9.81
2023-05-21T01:37:32.539Z,9.81
2023-05-21T01:37:42.547Z,9.79
2023-05-21T01:37:52.570Z,9.78
2023-05-21T01:38:02.541Z,9.76
2023-05-21T01:38:12.549Z,9.76
2023-05-21T01:38:22.545Z,9.74
2023-05-21T01:38:32.547Z,9.73
2023-05-21T01:38:52.557Z,9.71
2023-05-21T01:39:02.573Z,9.71
2023-05-21T01:39:12.547Z,9.70
2023-05-21T01:39:22.554Z,9.68
2023-05-21T01:39:32.547Z,9.70
2023-05-21T01:39:42.554Z,9.71
2023-05-21T01:40:02.569Z,9.72
2023-05-21T01:40:12.550Z,9.71
2023-05-21T01:40:22.565Z,9.72
2023-05-21T01:40:32.565Z,9.72
2023-05-21T01:40:42.549Z,9.72
2023-05-21T01:40:52.551Z,9.71
2023-05-21T01:41:02.555Z,9.70
2023-05-21T01:41:12.568Z,9.68
2023-05-21T01:41:32.558Z,9.69
2023-05-21T01:41:42.557Z,9.69
2023-05-21T01:41:52.560Z,9.68
2023-05-21T01:42:02.561Z,9.69
2023-05-21T01:42:12.559Z,9.66
2023-05-21T01:42:22.582Z,9.65
2023-05-21T01:42:32.562Z,9.65
2023-05-21T01:42:42.572Z,9.65
2023-05-21T01:42:52.563Z,9.62
2023-05-21T01:43:02.570Z,9.63
2023-05-21T01:43:12.566Z,9.60
2023-05-21T01:43:22.572Z,9.62
2023-05-21T01:43:32.572Z,9.61
2023-05-21T01:43:42.595Z,9.61
2023-05-21T01:43:52.569Z,9.63
2023-05-21T01:44:02.571Z,9.61
2023-05-21T01:44:12.573Z,9.62
2023-05-21T01:44:22.603Z,9.63
2023-05-21T01:44:32.576Z,9.63
2023-05-21T01:44:42.579Z,9.65
2023-05-21T01:44:52.572Z,9.65
2023-05-21T01:45:02.581Z,9.66
2023-05-21T01:45:22.582Z,9.67
2023-05-21T01:45:32.591Z,9.68
2023-05-21T01:45:42.576Z,9.68
2023-05-21T01:45:52.575Z,9.67
2023-05-21T01:46:02.613Z,9.67
2023-05-21T01:46:12.614Z,9.63
2023-05-21T01:46:32.665Z,9.64
2023-05-21T01:46:42.645Z,9.64
2023-05-21T01:46:52.618Z,9.64
2023-05-21T01:47:02.590Z,9.66
2023-05-21T01:47:12.586Z,9.64
2023-05-21T01:47:22.641Z,9.67
2023-05-21T01:47:32.638Z,9.66
2023-05-21T01:47:42.607Z,9.67
2023-05-21T01:47:52.702Z,9.65
2023-05-21T01:48:02.684Z,9.63
2023-05-21T01:48:22.587Z,9.67
2023-05-21T01:48:32.588Z,9.67
2023-05-21T01:48:42.596Z,9.67
2023-05-21T01:48:52.611Z,9.68
2023-05-21T01:49:02.593Z,9.68
2023-05-21T01:49:12.598Z,9.66
2023-05-21T01:49:22.589Z,9.66
2023-05-21T01:49:32.610Z,9.64
2023-05-21T01:49:42.599Z,9.62
2023-05-21T01:49:52.616Z,9.62
2023-05-21T01:50:02.603Z,9.61
2023-05-21T01:50:12.601Z,9.58
2023-05-21T01:50:22.632Z,9.58
2023-05-21T01:50:42.633Z,9.57
2023-05-21T01:50:52.599Z,9.55
2023-05-21T01:51:02.629Z,9.54
2023-05-21T01:51:12.611Z,9.51
2023-05-21T01:51:22.607Z,9.50
2023-05-21T01:51:32.627Z,9.47
2023-05-21T01:51:52.605Z,9.46
2023-05-21T01:52:02.627Z,9.47
2023-05-21T01:52:12.615Z,9.48
2023-05-21T01:52:22.615Z,9.48
2023-05-21T01:52:32.610Z,9.48
2023-05-21T01:52:42.622Z,9.50
2023-05-21T01:53:02.618Z,9.51
2023-05-21T01:53:12.626Z,9.52
2023-05-21T01:53:22.632Z,9.52
2023-05-21T01:53:32.624Z,9.53
2023-05-21T01:53:42.648Z,9.53
2023-05-21T01:53:52.632Z,9.53
2023-05-21T01:54:02.625Z,9.53
2023-05-21T01:54:12.639Z,9.52
2023-05-21T01:54:22.620Z,9.53
2023-05-21T01:54:32.619Z,9.54
2023-05-21T01:54:42.631Z,9.55
2023-05-21T01:54:52.622Z,9.56
2023-05-21T01:55:02.628Z,9.56
2023-05-21T01:55:22.619Z,9.58
2023-05-21T01:55:32.639Z,9.60
2023-05-21T01:55:42.648Z,9.60
2023-05-21T01:55:52.644Z,9.60
2023-05-21T01:56:02.649Z,9.61
2023-05-21T01:56:12.638Z,9.62
2023-05-21T01:56:22.632Z,9.60
2023-05-21T01:56:42.647Z,9.62
2023-05-21T01:56:52.632Z,9.63
2023-05-21T01:57:02.642Z,9.64
2023-05-21T01:57:12.645Z,9.66
2023-05-21T01:57:22.630Z,9.68
2023-05-21T01:57:32.636Z,9.68
2023-05-21T01:57:42.629Z,9.66
2023-05-21T01:57:52.630Z,9.66
2023-05-21T01:58:02.782Z,9.67
2023-05-21T01:58:12.639Z,9.64
2023-05-21T01:58:32.630Z,9.64
2023-05-21T01:58:42.630Z,9.64
2023-05-21T01:58:52.629Z,9.63
2023-05-21T01:59:02.644Z,9.62
2023-05-21T01:59:12.633Z,9.62
2023-05-21T01:59:22.634Z,9.63
2023-05-21T01:59:32.640Z,9.63
2023-05-21T01:59:42.634Z,9.63
2023-05-21T01:59:52.635Z,9.62
2023-05-21T02:00:02.642Z,9.63
2023-05-21T02:00:12.638Z,9.63
2023-05-21T02:00:32.673Z,9.65
2023-05-21T02:00:42.645Z,9.65
2023-05-21T02:00:52.667Z,9.66
2023-05-21T02:01:02.647Z,9.66
2023-05-21T02:01:12.665Z,9.66
2023-05-21T02:01:22.760Z,9.66
2023-05-21T02:01:32.730Z,9.64
2023-05-21T02:01:42.699Z,9.64
2023-05-21T02:02:02.701Z,9.67
2023-05-21T02:02:12.725Z,9.68
2023-05-21T02:02:22.652Z,9.69
2023-05-21T02:02:32.745Z,9.69
2023-05-21T02:02:42.684Z,9.70
2023-05-21T02:02:52.752Z,9.72
2023-05-21T02:03:02.864Z,9.72
2023-05-21T02:03:22.720Z,9.73
2023-05-21T02:03:32.716Z,9.75
2023-05-21T02:03:42.754Z,9.75
2023-05-21T02:03:52.696Z,9.73
2023-05-21T02:04:02.769Z,9.70
2023-05-21T02:04:12.721Z,9.68
2023-05-21T02:04:32.661Z,9.67
2023-05-21T02:04:42.662Z,9.68
2023-05-21T02:04:52.654Z,9.68
2023-05-21T02:05:02.659Z,9.69
2023-05-21T02:05:12.676Z,9.66
2023-05-21T02:05:22.669Z,9.66
2023-05-21T02:05:32.664Z,9.63
2023-05-21T02:05:52.653Z,9.64
2023-05-21T02:06:02.685Z,9.62
2023-05-21T02:06:12.663Z,9.60
2023-05-21T02:06:22.695Z,9.61
2023-05-21T02:06:32.685Z,9.60
2023-05-21T02:06:42.684Z,9.60
2023-05-21T02:06:52.661Z,9.61
2023-05-21T02:07:02.661Z,9.63
2023-05-21T02:07:12.663Z,9.61
2023-05-21T02:07:32.690Z,9.63
2023-05-21T02:07:42.673Z,9.65
2023-05-21T02:07:52.670Z,9.63
2023-05-21T02:08:02.667Z,9.64
2023-05-21T02:08:12.674Z,9.65
2023-05-21T02:08:22.667Z,9.63
2023-05-21T02:08:42.682Z,9.64
2023-05-21T02:08:52.683Z,9.66
2023-05-21T02:09:02.681Z,9.66
2023-05-21T02:09:12.680Z,9.64
2023-05-21T02:09:22.696Z,9.66
2023-05-21T02:09:32.679Z,9.66
2023-05-21T02:09:42.687Z,9.66
2023-05-21T02:09:52.675Z,9.68
2023-05-21T02:10:02.680Z,9.68
2023-05-21T02:10:12.692Z,9.71
2023-05-21T02:10:22.698Z,9.72
2023-05-21T02:10:32.719Z,9.72
2023-05-21T02:10:42.689Z,9.75
2023-05-21T02:10:52.678Z,9.76
2023-05-21T02:11:02.681Z,9.77
2023-05-21T02:11:22.683Z,9.78
2023-05-21T02:11:32.698Z,9.79
2023-05-21T02:11:42.688Z,9.80
2023-05-21T02:11:52.706Z,9.81
2023-05-21T02:12:02.709Z,9.82
2023-05-21T02:12:12.685Z,9.83
2023-05-21T02:12:22.700Z,9.82
2023-05-21T02:12:32.689Z,9.82
2023-05-21T02:12:42.697Z,9.84
2023-05-21T02:12:52.708Z,9.82
2023-05-21T02:13:02.711Z,9.84
2023-05-21T02:13:12.703Z,9.83
2023-05-21T02:13:25.024Z,9.82
2023-05-21T02:13:32.688Z,9.82
2023-05-21T02:13:42.747Z,9.81
2023-05-21T02:13:52.710Z,9.82
2023-05-21T02:14:02.731Z,9.84
2023-05-21T02:14:22.694Z,9.82
2023-05-21T02:14:32.706Z,9.82
2023-05-21T02:14:42.766Z,9.82
2023-05-21T02:14:52.703Z,9.81
2023-05-21T02:15:02.696Z,9.79
2023-05-21T02:15:12.699Z,9.81
2023-05-21T02:15:22.697Z,9.80
2023-05-21T02:15:32.716Z,9.80
2023-05-21T02:15:52.725Z,9.77
2023-05-21T02:16:02.756Z,9.77
2023-05-21T02:16:12.750Z,9.75
2023-05-21T02:16:22.799Z,9.75
2023-05-21T02:16:32.740Z,9.74
2023-05-21T02:16:42.747Z,9.74
2023-05-21T02:16:52.709Z,9.73
2023-05-21T02:17:12.707Z,9.73
2023-05-21T02:17:22.715Z,9.71
2023-05-21T02:17:32.757Z,9.71
2023-05-21T02:17:42.798Z,9.69
2023-05-21T02:17:52.726Z,9.70
2023-05-21T02:18:02.740Z,9.69
2023-05-21T02:18:12.763Z,9.71
2023-05-21T02:18:22.722Z,9.69
2023-05-21T02:18:32.745Z,9.71
2023-05-21T02:18:42.771Z,9.72
2023-05-21T02:18:52.789Z,9.70
2023-05-21T02:19:02.757Z,9.70
2023-05-21T02:19:22.766Z,9.68
2023-05-21T02:19:32.783Z,9.71
2023-05-21T02:19:42.733Z,9.68
2023-05-21T02:19:52.722Z,9.69
2023-05-21T02:20:02.719Z,9.68
2023-05-21T02:20:12.735Z,9.69
2023-05-21T02:20:22.796Z,9.70
2023-05-21T02:20:32.770Z,9.69
2023-05-21T02:20:52.738Z,9.70
2023-05-21T02:21:02.724Z,9.68
2023-05-21T02:21:12.738Z,9.70
2023-05-21T02:21:22.740Z,9.71
2023-05-21T02:21:32.711Z,9.71
2023-05-21T02:21:42.730Z,9.73